Time;durP1;ratioP1;P1;durP2;ratioP2;P2;SDS_P1;SDS_P2;PMS_P1;PMS_P2;Temp;Humidity;BMP_temperature;BMP_pressure;BME280_temperature;BME280_humidity;BME280_pressure;Samples;Min_cycle;Max_cycle;Signal;HPM_P1;HPM_P2
2021/04/28 00:00:39;;;;;;;24.20;17.17;;;20.40;99.90;;;;;;4898605;29;20040;-72
2021/04/28 00:03:09;;;;;;;19.35;12.43;;;20.60;99.90;;;;;;4911187;29;20028;-71
2021/04/28 00:05:37;;;;;;;20.73;15.50;;;20.50;99.90;;;;;;4916700;29;20090;-73
2021/04/28 00:08:07;;;;;;;19.65;14.95;;;20.50;99.90;;;;;;4917690;29;20417;-71
2021/04/28 00:10:38;;;;;;;19.23;14.20;;;20.90;99.90;;;;;;4915189;29;20048;-73
2021/04/28 00:13:06;;;;;;;18.63;12.77;;;20.90;99.90;;;;;;4912656;29;20135;-71
2021/04/28 00:15:35;;;;;;;14.02;11.43;;;21.20;99.90;;;;;;4913526;29;20115;-71
2021/04/28 00:18:03;;;;;;;13.82;9.27;;;21.50;99.90;;;;;;4909517;29;20055;-71
2021/04/28 00:20:37;;;;;;;10.27;7.05;;;21.40;99.90;;;;;;4912947;29;20043;-71
2021/04/28 00:23:05;;;;;;;9.70;4.93;;;21.30;99.90;;;;;;4912351;29;20107;-74
2021/04/28 00:25:33;;;;;;;7.07;4.05;;;21.10;99.90;;;;;;4899005;29;20060;-74
2021/04/28 00:28:00;;;;;;;9.52;4.50;;;20.90;99.90;;;;;;4917642;29;20032;-74
2021/04/28 00:30:28;;;;;;;8.00;4.97;;;21.50;99.90;;;;;;4903698;29;20122;-73
2021/04/28 00:32:56;;;;;;;6.60;5.18;;;22.10;99.90;;;;;;4917020;29;20056;-74
2021/04/28 00:35:24;;;;;;;9.75;4.10;;;22.10;99.90;;;;;;4917002;29;20102;-73
2021/04/28 00:37:52;;;;;;;3.33;2.63;;;21.80;99.90;;;;;;4916984;29;20084;-73
2021/04/28 00:40:40;;;;;;;6.75;3.65;;;22.10;99.90;;;;;;4917408;29;20525;-74
2021/04/28 00:43:08;;;;;;;9.00;3.70;;;21.50;99.90;;;;;;4908006;29;20052;-72
2021/04/28 00:45:35;;;;;;;6.97;4.70;;;21.90;99.90;;;;;;4913476;29;20550;-71
2021/04/28 00:48:07;;;;;;;6.35;4.22;;;21.80;99.90;;;;;;4916794;29;20091;-71
2021/04/28 00:50:38;;;;;;;9.75;4.50;;;21.90;99.90;;;;;;4916758;29;20477;-73
2021/04/28 00:53:07;;;;;;;6.47;4.03;;;22.20;99.90;;;;;;4915244;29;20045;-72
2021/04/28 00:55:35;;;;;;;5.50;4.70;;;21.80;99.90;;;;;;4917422;29;20036;-73
2021/04/28 00:58:04;;;;;;;6.78;4.50;;;21.20;99.90;;;;;;4913230;29;20036;-73
2021/04/28 01:00:32;;;;;;;7.25;5.55;;;21.50;99.90;;;;;;4916282;29;20130;-76
2021/04/28 01:03:00;;;;;;;8.23;5.35;;;21.30;99.90;;;;;;4916431;29;20055;-73
2021/04/28 01:05:27;;;;;;;7.32;5.50;;;21.50;99.90;;;;;;4909228;29;20044;-74
2021/04/28 01:07:55;;;;;;;8.88;4.45;;;21.80;99.90;;;;;;4912613;29;20072;-72
2021/04/28 01:10:25;;;;;;;7.85;4.57;;;21.80;99.90;;;;;;4917567;29;20044;-74
2021/04/28 01:12:54;;;;;;;7.85;5.22;;;21.70;99.90;;;;;;4917548;29;20040;-74
2021/04/28 01:15:24;;;;;;;7.07;5.07;;;22.10;99.90;;;;;;4915854;29;20435;-74
2021/04/28 01:17:52;;;;;;;7.63;5.03;;;22.30;99.90;;;;;;4912555;29;20043;-72
2021/04/28 01:20:22;;;;;;;8.10;5.03;;;21.80;99.90;;;;;;4907445;29;20043;-75
2021/04/28 01:22:50;;;;;;;7.50;5.38;;;21.50;99.90;;;;;;4912404;29;20044;-73
2021/04/28 01:25:21;;;;;;;7.35;5.20;;;21.20;99.90;;;;;;4896096;29;20036;-72
2021/04/28 01:28:11;;;;;;;10.38;4.93;;;21.10;99.90;;;;;;4916181;29;20558;-73
2021/04/28 01:30:55;;;;;;;7.65;4.93;;;21.00;99.90;;;;;;4906340;29;20100;-73
2021/04/28 01:33:45;;;;;;;9.50;5.38;;;21.10;99.90;;;;;;4910395;29;20048;-73
2021/04/28 01:36:24;;;;;;;8.73;5.28;;;20.90;99.90;;;;;;4903118;29;20128;-74
2021/04/28 01:38:57;;;;;;;5.55;4.80;;;21.10;99.90;;;;;;4911591;29;20032;-74
2021/04/28 01:41:26;;;;;;;8.18;5.07;;;21.50;99.90;;;;;;4926874;23;21210;-66
2021/04/28 01:43:54;;;;;;;7.57;5.00;;;21.70;99.90;;;;;;4947841;28;20079;-66
2021/04/28 01:46:29;;;;;;;7.32;4.72;;;21.80;99.90;;;;;;4956182;28;20045;-66
2021/04/28 01:48:57;;;;;;;4.45;4.03;;;21.90;99.90;;;;;;4938254;29;20035;-66
2021/04/28 01:51:25;;;;;;;6.40;3.97;;;22.00;99.90;;;;;;4955966;28;20426;-66
2021/04/28 01:53:52;;;;;;;7.13;3.92;;;22.10;99.90;;;;;;4952206;28;20106;-66
2021/04/28 01:56:22;;;;;;;7.28;4.07;;;21.70;99.90;;;;;;4951387;28;20035;-66
2021/04/28 01:58:53;;;;;;;5.25;4.25;;;21.50;99.90;;;;;;4945935;29;20070;-66
2021/04/28 02:01:21;;;;;;;6.35;4.00;;;21.90;99.90;;;;;;4952073;28;20039;-66
2021/04/28 02:03:50;;;;;;;4.88;4.45;;;22.10;99.90;;;;;;4930911;29;20556;-67
2021/04/28 02:06:18;;;;;;;9.55;4.55;;;22.00;99.90;;;;;;4919791;29;20047;-66
2021/04/28 02:08:45;;;;;;;9.57;4.97;;;22.10;99.90;;;;;;4934925;29;20035;-67
2021/04/28 02:11:14;;;;;;;5.55;3.78;;;22.10;99.90;;;;;;4936791;29;20400;-67
2021/04/28 02:13:45;;;;;;;5.53;4.35;;;22.10;99.90;;;;;;4932746;29;20040;-67
2021/04/28 02:16:14;;;;;;;4.47;3.28;;;22.40;99.90;;;;;;4919022;29;20032;-66
2021/04/28 02:18:42;;;;;;;4.93;3.83;;;22.80;99.90;;;;;;4917360;29;20074;-66
2021/04/28 02:21:10;;;;;;;5.57;3.13;;;23.10;99.90;;;;;;4919689;29;20043;-66
2021/04/28 02:23:42;;;;;;;5.05;3.20;;;23.10;99.90;;;;;;4925103;29;20528;-66
2021/04/28 02:26:10;;;;;;;6.30;2.75;;;23.10;99.90;;;;;;4919232;29;20051;-66
2021/04/28 02:28:38;;;;;;;6.28;3.25;;;22.60;99.90;;;;;;4934459;29;20031;-66
2021/04/28 02:31:06;;;;;;;5.93;3.60;;;22.80;99.90;;;;;;4928992;29;20107;-65
2021/04/28 02:33:35;;;;;;;4.75;3.40;;;22.60;99.90;;;;;;4929750;29;20043;-66
2021/04/28 02:36:03;;;;;;;4.75;3.10;;;22.50;99.90;;;;;;4934700;29;20492;-65
2021/04/28 02:38:52;;;;;;;5.35;3.42;;;23.10;99.90;;;;;;4933649;29;20028;-66
2021/04/28 02:41:21;;;;;;;3.28;2.83;;;23.20;99.90;;;;;;4936031;29;20043;-66
2021/04/28 02:43:50;;;;;;;6.13;2.80;;;23.20;99.90;;;;;;4934165;29;20047;-66
2021/04/28 02:46:18;;;;;;;5.03;3.00;;;22.90;99.90;;;;;;4935954;29;20556;-66
2021/04/28 02:48:49;;;;;;;4.70;3.25;;;23.00;99.90;;;;;;4931271;29;20115;-66
2021/04/28 02:51:17;;;;;;;5.45;2.67;;;23.60;99.90;;;;;;4936038;29;20032;-66
2021/04/28 02:53:46;;;;;;;4.80;2.88;;;22.80;99.90;;;;;;4934101;29;20043;-66
2021/04/28 02:56:14;;;;;;;5.43;2.88;;;22.50;99.90;;;;;;4910666;29;20036;-66
2021/04/28 02:58:41;;;;;;;4.72;2.42;;;22.10;99.90;;;;;;4915678;29;20118;-66
2021/04/28 03:01:09;;;;;;;6.80;2.83;;;21.80;99.90;;;;;;4931073;29;20479;-66
2021/04/28 03:03:40;;;;;;;3.20;2.60;;;22.00;99.90;;;;;;4930605;29;20066;-66
2021/04/28 03:06:10;;;;;;;5.07;2.80;;;22.00;99.90;;;;;;4921428;29;20036;-66
2021/04/28 03:08:39;;;;;;;7.03;3.10;;;21.70;99.90;;;;;;4929148;29;20063;-66
2021/04/28 03:11:06;;;;;;;4.03;2.80;;;21.60;99.90;;;;;;4923502;29;20032;-66
2021/04/28 03:13:33;;;;;;;5.18;3.13;;;21.80;99.90;;;;;;4935101;29;20489;-66
2021/04/28 03:16:00;;;;;;;5.15;3.42;;;21.30;99.90;;;;;;4932988;29;20035;-67
2021/04/28 03:18:28;;;;;;;7.68;3.28;;;21.10;99.90;;;;;;4931587;29;20493;-66
2021/04/28 03:20:56;;;;;;;6.50;3.05;;;20.80;99.90;;;;;;4935292;29;20124;-66
2021/04/28 03:23:25;;;;;;;11.25;4.30;;;20.90;99.90;;;;;;4934051;29;20046;-66
2021/04/28 03:25:52;;;;;;;6.03;3.47;;;20.80;99.90;;;;;;4935729;29;20094;-66
2021/04/28 03:28:19;;;;;;;6.28;3.95;;;20.60;99.90;;;;;;4934128;29;20119;-66
2021/04/28 03:30:47;;;;;;;6.50;3.33;;;20.70;99.90;;;;;;4935940;29;20043;-66
2021/04/28 03:33:14;;;;;;;5.65;3.65;;;20.80;99.90;;;;;;4933225;29;20142;-66
2021/04/28 03:35:41;;;;;;;7.88;4.07;;;20.90;99.90;;;;;;4935164;29;20098;-66
2021/04/28 03:38:09;;;;;;;5.95;3.53;;;20.70;99.90;;;;;;4916445;29;20039;-66
2021/04/28 03:40:36;;;;;;;4.22;2.88;;;20.70;99.90;;;;;;4935150;29;20103;-66
2021/04/28 03:43:04;;;;;;;7.22;3.25;;;20.70;99.90;;;;;;4933596;29;20569;-66
2021/04/28 03:45:31;;;;;;;8.45;5.05;;;20.70;99.90;;;;;;4935564;29;20119;-66
2021/04/28 03:47:59;;;;;;;7.78;3.08;;;21.20;99.90;;;;;;4916363;29;20036;-66
2021/04/28 03:50:26;;;;;;;3.83;2.72;;;21.30;99.90;;;;;;4935132;29;20048;-66
2021/04/28 03:52:53;;;;;;;4.05;2.63;;;21.30;99.90;;;;;;4916064;29;20488;-66
2021/04/28 03:55:20;;;;;;;7.28;3.22;;;21.20;99.90;;;;;;4917765;29;20452;-66
2021/04/28 03:57:48;;;;;;;5.53;3.08;;;20.80;99.90;;;;;;4913389;29;20043;-66
2021/04/28 04:00:16;;;;;;;6.43;3.15;;;21.10;99.90;;;;;;4917780;29;20429;-66
2021/04/28 04:02:43;;;;;;;5.60;3.08;;;20.90;99.90;;;;;;4935451;29;20044;-66
2021/04/28 04:05:11;;;;;;;4.10;3.22;;;20.80;99.90;;;;;;4916502;29;20044;-66
2021/04/28 04:07:38;;;;;;;6.60;3.80;;;21.10;99.90;;;;;;4932616;29;20102;-67
2021/04/28 04:10:07;;;;;;;6.45;3.47;;;21.00;99.90;;;;;;4932637;29;20413;-66
2021/04/28 04:12:35;;;;;;;5.22;2.88;;;20.80;99.90;;;;;;4918234;29;20134;-66
2021/04/28 04:15:03;;;;;;;5.55;2.90;;;20.80;99.90;;;;;;4902308;29;20413;-66
2021/04/28 04:17:30;;;;;;;5.38;3.33;;;20.60;99.90;;;;;;4935169;29;20047;-66
2021/04/28 04:19:57;;;;;;;3.10;2.83;;;20.60;99.90;;;;;;4933026;29;20047;-66
2021/04/28 04:22:24;;;;;;;7.72;3.50;;;20.50;99.90;;;;;;4935121;29;20174;-66
2021/04/28 04:24:52;;;;;;;8.65;3.22;;;20.30;99.90;;;;;;4933309;29;20040;-66
2021/04/28 04:27:19;;;;;;;6.57;3.50;;;20.30;99.90;;;;;;4934765;29;20040;-66
2021/04/28 04:29:46;;;;;;;8.68;3.60;;;20.20;99.90;;;;;;4931029;29;20052;-67
2021/04/28 04:32:14;;;;;;;7.32;3.95;;;20.40;99.90;;;;;;4916613;29;20059;-67
2021/04/28 04:34:41;;;;;;;6.65;2.80;;;20.10;99.90;;;;;;4934053;29;20043;-66
2021/04/28 04:37:08;;;;;;;5.03;3.60;;;19.80;99.90;;;;;;4918109;29;20071;-66
2021/04/28 04:39:36;;;;;;;7.15;3.70;;;19.80;99.90;;;;;;4932766;29;20392;-67
2021/04/28 04:42:03;;;;;;;6.43;3.47;;;19.80;99.90;;;;;;4916738;29;20072;-66
2021/04/28 04:44:31;;;;;;;5.68;3.17;;;19.80;99.90;;;;;;4933775;29;20078;-66
2021/04/28 04:46:58;;;;;;;4.25;2.80;;;19.90;99.90;;;;;;4918325;29;20043;-65
2021/04/28 04:49:25;;;;;;;6.57;2.90;;;19.90;99.90;;;;;;4916618;29;20501;-66
2021/04/28 04:51:52;;;;;;;4.80;2.67;;;19.90;99.90;;;;;;4930109;29;20102;-66
2021/04/28 04:54:20;;;;;;;5.13;3.28;;;20.10;99.90;;;;;;4930537;29;20424;-66
2021/04/28 04:56:47;;;;;;;3.88;2.70;;;20.10;99.90;;;;;;4935253;29;20036;-65
2021/04/28 04:59:15;;;;;;;4.55;2.70;;;20.00;99.90;;;;;;4917112;29;20527;-65
2021/04/28 05:01:42;;;;;;;5.55;2.90;;;20.00;99.90;;;;;;4917543;29;20070;-66
2021/04/28 05:04:09;;;;;;;5.63;2.60;;;19.90;99.90;;;;;;4918935;29;20028;-65
2021/04/28 05:06:36;;;;;;;4.40;3.10;;;20.00;99.90;;;;;;4935760;29;20052;-66
2021/04/28 05:09:04;;;;;;;14.15;3.60;;;19.90;99.90;;;;;;4921269;29;20043;-66
2021/04/28 05:11:32;;;;;;;7.55;3.38;;;20.00;99.90;;;;;;4940771;29;20071;-66
2021/04/28 05:13:59;;;;;;;5.55;2.65;;;20.00;99.90;;;;;;4925705;29;20035;-66
2021/04/28 05:16:26;;;;;;;5.38;2.72;;;20.10;99.90;;;;;;4926056;29;20028;-66
2021/04/28 05:18:53;;;;;;;5.70;2.78;;;20.00;99.90;;;;;;4940399;29;20527;-66
2021/04/28 05:21:21;;;;;;;8.95;3.35;;;20.00;99.90;;;;;;4938533;29;20044;-66
2021/04/28 05:23:48;;;;;;;5.45;2.63;;;19.90;99.90;;;;;;4936736;29;20054;-66
2021/04/28 05:26:16;;;;;;;7.80;3.90;;;19.80;99.90;;;;;;4921304;29;20095;-66
2021/04/28 05:28:43;;;;;;;4.57;2.53;;;19.70;99.90;;;;;;4919826;29;20072;-66
2021/04/28 05:31:11;;;;;;;8.18;2.78;;;19.70;99.90;;;;;;4919924;29;20035;-65
2021/04/28 05:33:40;;;;;;;5.72;2.85;;;19.60;99.90;;;;;;4935529;29;20055;-66
2021/04/28 05:36:08;;;;;;;3.33;2.33;;;19.60;99.90;;;;;;4938107;29;20548;-66
2021/04/28 05:38:37;;;;;;;5.47;2.45;;;19.60;99.90;;;;;;4921798;29;20051;-66
2021/04/28 05:41:04;;;;;;;5.68;3.03;;;19.50;99.90;;;;;;4937674;29;20489;-66
2021/04/28 05:43:32;;;;;;;5.88;3.05;;;19.50;99.90;;;;;;4916084;29;20523;-66
2021/04/28 05:46:01;;;;;;;3.35;2.38;;;19.50;99.90;;;;;;4916437;29;20032;-66
2021/04/28 05:48:28;;;;;;;3.13;2.60;;;19.50;99.90;;;;;;4915229;29;20051;-66
2021/04/28 05:50:56;;;;;;;3.42;2.00;;;19.40;99.90;;;;;;4918408;29;20079;-66
2021/04/28 05:53:23;;;;;;;3.50;2.58;;;19.40;99.90;;;;;;4916749;29;20055;-65
2021/04/28 05:55:50;;;;;;;7.60;3.13;;;19.30;99.90;;;;;;4915610;29;20039;-65
2021/04/28 05:58:18;;;;;;;3.55;2.10;;;19.40;99.90;;;;;;4907039;29;20033;-66
2021/04/28 06:00:45;;;;;;;4.90;2.25;;;19.30;99.90;;;;;;4915162;29;20397;-65
2021/04/28 06:03:12;;;;;;;4.47;2.72;;;19.40;99.90;;;;;;4915964;29;20051;-66
2021/04/28 06:05:40;;;;;;;5.10;2.58;;;19.40;99.90;;;;;;4913692;29;20127;-66
2021/04/28 06:08:07;;;;;;;3.95;2.50;;;19.40;99.90;;;;;;4914019;29;20048;-66
2021/04/28 06:10:34;;;;;;;7.47;2.83;;;19.30;99.90;;;;;;4937148;29;20513;-66
2021/04/28 06:13:02;;;;;;;5.18;2.63;;;19.30;99.90;;;;;;4933811;29;20397;-66
2021/04/28 06:15:29;;;;;;;3.90;2.58;;;19.20;99.90;;;;;;4928283;29;20046;-66
2021/04/28 06:17:56;;;;;;;3.17;2.22;;;19.20;99.90;;;;;;4914634;29;20028;-65
2021/04/28 06:20:24;;;;;;;5.40;2.85;;;19.20;99.90;;;;;;4911492;29;20071;-65
2021/04/28 06:22:51;;;;;;;4.80;2.25;;;19.10;99.90;;;;;;4907505;29;20040;-66
2021/04/28 06:25:18;;;;;;;9.02;3.00;;;19.00;99.90;;;;;;4914020;29;20064;-66
2021/04/28 06:27:46;;;;;;;5.57;2.60;;;19.00;99.90;;;;;;4914931;29;20036;-66
2021/04/28 06:30:14;;;;;;;5.03;3.05;;;19.00;99.90;;;;;;4912187;29;20044;-66
2021/04/28 06:32:41;;;;;;;5.28;2.78;;;19.10;99.90;;;;;;4914775;29;20048;-66
2021/04/28 06:35:09;;;;;;;6.53;2.72;;;19.00;99.90;;;;;;4913104;29;20033;-66
2021/04/28 06:37:38;;;;;;;4.90;3.28;;;19.00;99.90;;;;;;4914340;29;20039;-66
2021/04/28 06:40:07;;;;;;;5.18;2.97;;;19.00;99.90;;;;;;4913073;29;20040;-66
2021/04/28 06:42:35;;;;;;;3.88;2.70;;;18.90;99.90;;;;;;4923456;29;20583;-66
2021/04/28 06:45:03;;;;;;;5.53;3.40;;;18.90;99.90;;;;;;4930443;29;20500;-66
2021/04/28 06:47:31;;;;;;;6.32;3.05;;;18.90;99.90;;;;;;4931336;29;20500;-66
2021/04/28 06:49:58;;;;;;;6.70;3.20;;;18.90;99.90;;;;;;4929096;29;20512;-66
2021/04/28 06:52:25;;;;;;;5.00;3.50;;;18.90;99.90;;;;;;4930099;29;20054;-66
2021/04/28 06:54:52;;;;;;;6.60;2.97;;;18.90;99.90;;;;;;4928619;29;20409;-66
2021/04/28 06:57:20;;;;;;;7.13;3.55;;;18.80;99.90;;;;;;4931644;29;20207;-66
2021/04/28 06:59:47;;;;;;;4.88;3.10;;;18.80;99.90;;;;;;4929758;29;20123;-66
2021/04/28 07:02:14;;;;;;;7.55;3.20;;;18.80;99.90;;;;;;4932901;29;20046;-66
2021/04/28 07:04:42;;;;;;;5.80;3.20;;;18.70;99.90;;;;;;4929904;29;20060;-66
2021/04/28 07:07:09;;;;;;;4.15;2.90;;;18.70;99.90;;;;;;4932405;29;20070;-66
2021/04/28 07:09:36;;;;;;;4.93;3.22;;;18.60;99.90;;;;;;4929970;29;20098;-66
2021/04/28 07:12:04;;;;;;;6.00;3.03;;;18.60;99.90;;;;;;4929147;29;20040;-66
2021/04/28 07:14:31;;;;;;;5.38;3.50;;;18.60;99.90;;;;;;4932215;29;20050;-66
2021/04/28 07:16:58;;;;;;;6.72;3.65;;;18.60;99.90;;;;;;4935119;29;20087;-66
2021/04/28 07:19:25;;;;;;;4.53;3.25;;;18.50;99.90;;;;;;4932175;29;20119;-66
2021/04/28 07:21:53;;;;;;;7.18;3.63;;;18.50;99.90;;;;;;4934428;29;20114;-66
2021/04/28 07:24:20;;;;;;;5.88;3.30;;;18.50;99.90;;;;;;4917925;29;20031;-66
2021/04/28 07:26:47;;;;;;;9.73;3.75;;;18.40;99.90;;;;;;4935866;29;20038;-66
2021/04/28 07:29:15;;;;;;;6.95;3.50;;;18.40;99.90;;;;;;4930914;29;20099;-66
2021/04/28 07:31:42;;;;;;;5.60;4.38;;;18.40;99.90;;;;;;4934599;29;20047;-66
2021/04/28 07:34:09;;;;;;;10.43;3.47;;;18.30;99.90;;;;;;4926915;29;20485;-66
2021/04/28 07:36:36;;;;;;;4.68;3.40;;;18.30;99.90;;;;;;4931552;29;20511;-66
2021/04/28 07:39:06;;;;;;;6.07;3.75;;;18.30;99.90;;;;;;4930509;29;20122;-66
2021/04/28 07:41:34;;;;;;;5.63;3.10;;;18.30;99.90;;;;;;4914281;29;20068;-66
2021/04/28 07:44:02;;;;;;;6.78;3.70;;;18.20;99.90;;;;;;4928622;29;20036;-66
2021/04/28 07:46:31;;;;;;;7.68;4.28;;;18.20;99.90;;;;;;4930823;29;20039;-66
2021/04/28 07:49:04;;;;;;;7.57;4.35;;;18.20;99.90;;;;;;4928948;29;20114;-66
2021/04/28 07:51:36;;;;;;;7.82;4.10;;;18.20;99.90;;;;;;4922306;29;20042;-66
2021/04/28 07:54:04;;;;;;;5.40;3.45;;;18.20;99.90;;;;;;4930635;29;20032;-66
2021/04/28 07:56:31;;;;;;;7.82;3.80;;;18.30;99.90;;;;;;4930944;29;20111;-66
2021/04/28 07:58:58;;;;;;;6.30;3.58;;;18.20;99.90;;;;;;4923315;29;20055;-65
2021/04/28 08:01:25;;;;;;;5.75;3.70;;;18.20;99.90;;;;;;4930439;29;20047;-65
2021/04/28 08:03:53;;;;;;;5.78;3.92;;;18.20;99.90;;;;;;4928914;29;20579;-65
2021/04/28 08:06:20;;;;;;;7.25;3.72;;;18.20;99.90;;;;;;4931748;29;20111;-66
2021/04/28 08:08:49;;;;;;;6.13;3.60;;;18.20;99.90;;;;;;4928751;29;20032;-66
2021/04/28 08:11:16;;;;;;;7.18;3.70;;;18.20;99.90;;;;;;4930430;29;20110;-66
2021/04/28 08:13:43;;;;;;;8.52;4.65;;;18.20;99.90;;;;;;4928675;29;20484;-66
2021/04/28 08:16:11;;;;;;;5.78;4.45;;;18.20;99.90;;;;;;4931877;29;20035;-66
2021/04/28 08:18:38;;;;;;;9.05;4.22;;;18.10;99.90;;;;;;4929857;29;20059;-67
2021/04/28 08:21:05;;;;;;;6.50;4.45;;;18.10;99.90;;;;;;4931888;29;20031;-66
2021/04/28 08:23:34;;;;;;;5.78;4.40;;;18.10;99.90;;;;;;4929537;29;20130;-65
2021/04/28 08:26:02;;;;;;;8.20;3.50;;;18.10;99.90;;;;;;4930603;29;20042;-66
2021/04/28 08:28:30;;;;;;;5.28;4.40;;;18.10;99.90;;;;;;4914910;29;20043;-65
2021/04/28 08:30:58;;;;;;;7.95;4.68;;;18.10;99.90;;;;;;4930417;29;20547;-66
2021/04/28 08:33:25;;;;;;;5.38;3.60;;;18.10;99.90;;;;;;4922739;29;20127;-66
2021/04/28 08:35:52;;;;;;;6.47;4.72;;;18.00;99.90;;;;;;4933921;29;20059;-66
2021/04/28 08:38:20;;;;;;;4.70;4.00;;;18.00;99.90;;;;;;4932466;29;20071;-66
2021/04/28 08:40:47;;;;;;;7.40;4.78;;;18.00;99.90;;;;;;4933553;29;20031;-65
2021/04/28 08:43:14;;;;;;;10.02;5.18;;;18.00;99.90;;;;;;4934148;29;20139;-66
2021/04/28 08:45:42;;;;;;;8.50;4.60;;;17.90;99.90;;;;;;4916538;29;20036;-66
2021/04/28 08:48:09;;;;;;;8.65;4.85;;;17.90;99.90;;;;;;4921067;29;20036;-66
2021/04/28 08:50:36;;;;;;;8.38;4.20;;;17.80;99.90;;;;;;4921082;29;20051;-66
2021/04/28 08:53:03;;;;;;;5.20;4.07;;;17.80;99.90;;;;;;4920552;29;20123;-66
2021/04/28 08:55:31;;;;;;;7.00;4.40;;;17.70;99.90;;;;;;4937360;29;20055;-66
2021/04/28 08:57:58;;;;;;;8.93;5.13;;;17.70;99.90;;;;;;4938181;29;20047;-66
2021/04/28 09:00:26;;;;;;;6.15;4.90;;;17.70;99.90;;;;;;4937421;29;20044;-66
2021/04/28 09:02:57;;;;;;;7.75;5.88;;;17.60;99.90;;;;;;4914584;29;20058;-68
2021/04/28 09:05:25;;;;;;;9.95;4.90;;;17.50;99.90;;;;;;4938274;29;20549;-68
2021/04/28 09:07:52;;;;;;;9.70;4.40;;;17.60;99.90;;;;;;4937992;29;20114;-68
2021/04/28 09:10:26;;;;;;;9.00;4.45;;;17.60;99.90;;;;;;4938053;29;20055;-68
2021/04/28 09:12:59;;;;;;;6.88;4.32;;;17.60;99.90;;;;;;4938029;29;20083;-68
2021/04/28 09:15:44;;;;;;;6.78;4.13;;;17.60;99.90;;;;;;4938001;29;20099;-68
2021/04/28 09:18:17;;;;;;;9.25;5.00;;;17.60;99.90;;;;;;4920330;29;20131;-68
2021/04/28 09:20:55;;;;;;;10.27;4.40;;;17.50;99.90;;;;;;4920951;29;20500;-68
2021/04/28 09:23:35;;;;;;;6.28;4.47;;;17.40;99.90;;;;;;4937393;29;20047;-68
2021/04/28 09:26:04;;;;;;;8.70;5.10;;;17.40;99.90;;;;;;4917869;29;20042;-68
2021/04/28 09:28:36;;;;;;;6.95;4.65;;;17.40;99.90;;;;;;4937550;29;20040;-68
2021/04/28 09:31:11;;;;;;;6.97;4.72;;;17.40;99.90;;;;;;4920336;29;20043;-68
2021/04/28 09:33:51;;;;;;;7.97;4.95;;;17.30;99.90;;;;;;4919218;29;20048;-68
2021/04/28 09:36:45;;;;;;;5.88;4.30;;;17.30;99.90;;;;;;4937569;29;20028;-68
2021/04/28 09:39:18;;;;;;;7.00;5.13;;;17.30;99.90;;;;;;4919147;29;20500;-68
2021/04/28 09:41:53;;;;;;;8.00;5.07;;;17.30;99.90;;;;;;4936592;29;20563;-68
2021/04/28 09:44:21;;;;;;;8.13;5.22;;;17.30;99.90;;;;;;4936715;29;20031;-68
2021/04/28 09:47:06;;;;;;;6.38;5.05;;;17.30;99.90;;;;;;4919970;29;20409;-68
2021/04/28 09:49:52;;;;;;;7.75;5.65;;;17.30;99.90;;;;;;4931622;29;20404;-68
2021/04/28 09:52:34;;;;;;;10.80;5.30;;;17.20;99.90;;;;;;4936992;29;20039;-68
2021/04/28 09:55:04;;;;;;;6.70;5.32;;;17.20;99.90;;;;;;4919923;29;20065;-68
2021/04/28 09:57:46;;;;;;;11.38;5.55;;;17.20;99.90;;;;;;4919230;29;20044;-68
2021/04/28 10:00:24;;;;;;;13.60;5.63;;;17.20;99.90;;;;;;4918135;29;20039;-67
2021/04/28 10:02:58;;;;;;;11.98;6.20;;;17.20;99.90;;;;;;4934876;29;20046;-67
2021/04/28 10:05:33;;;;;;;8.73;5.47;;;17.10;99.90;;;;;;4936916;29;20504;-67
2021/04/28 10:08:19;;;;;;;7.88;5.18;;;17.10;99.90;;;;;;4936696;29;20032;-67
2021/04/28 10:10:55;;;;;;;8.10;5.20;;;17.10;99.90;;;;;;4936651;29;20047;-67
2021/04/28 10:13:22;;;;;;;10.35;5.18;;;17.10;99.90;;;;;;4933725;29;20109;-66
2021/04/28 10:15:50;;;;;;;7.68;5.43;;;17.10;99.90;;;;;;4919016;29;20039;-67
2021/04/28 10:18:19;;;;;;;10.30;5.75;;;17.10;99.90;;;;;;4936766;29;20035;-67
2021/04/28 10:20:48;;;;;;;12.48;6.80;;;17.00;99.90;;;;;;4919416;29;20040;-67
2021/04/28 10:23:20;;;;;;;12.43;6.30;;;17.00;99.90;;;;;;4936915;29;20404;-67
2021/04/28 10:25:51;;;;;;;9.85;6.30;;;17.00;99.90;;;;;;4937030;29;20040;-67
2021/04/28 10:28:19;;;;;;;10.90;5.65;;;17.00;99.90;;;;;;4935946;29;20048;-67
2021/04/28 10:30:49;;;;;;;6.95;5.40;;;17.00;99.90;;;;;;4940730;29;20032;-66
2021/04/28 10:33:20;;;;;;;8.05;5.50;;;16.90;99.90;;;;;;4940029;29;20039;-66
2021/04/28 10:35:50;;;;;;;6.07;5.38;;;16.90;99.90;;;;;;4922639;29;20059;-66
2021/04/28 10:38:26;;;;;;;7.82;4.78;;;16.90;99.90;;;;;;4923823;29;20042;-66
2021/04/28 10:40:55;;;;;;;7.30;4.63;;;16.90;99.90;;;;;;4942154;29;20398;-66
2021/04/28 10:43:33;;;;;;;7.88;4.60;;;16.90;99.90;;;;;;4941200;29;20060;-66
2021/04/28 10:46:18;;;;;;;8.90;5.40;;;16.90;99.90;;;;;;4936236;29;20035;-67
2021/04/28 10:48:46;;;;;;;6.30;4.68;;;16.90;99.90;;;;;;4936316;29;20091;-67
2021/04/28 10:51:36;;;;;;;8.55;4.40;;;16.90;99.90;;;;;;4934089;29;20036;-67
2021/04/28 10:54:26;;;;;;;7.20;4.88;;;16.80;99.90;;;;;;4921110;29;20071;-67
2021/04/28 10:57:05;;;;;;;10.57;5.60;;;16.80;99.90;;;;;;4919783;29;20152;-67
2021/04/28 10:59:35;;;;;;;10.23;5.07;;;16.80;99.90;;;;;;4918614;29;20077;-66
2021/04/28 11:02:16;;;;;;;7.88;4.63;;;16.80;99.90;;;;;;4935974;29;20031;-67
2021/04/28 11:04:47;;;;;;;9.10;4.75;;;16.70;99.90;;;;;;4936408;29;20363;-67
2021/04/28 11:07:34;;;;;;;7.15;4.07;;;16.70;99.90;;;;;;4917703;29;20044;-67
2021/04/28 11:10:24;;;;;;;9.07;4.57;;;16.70;99.90;;;;;;4935182;29;20042;-67
2021/04/28 11:13:16;;;;;;;8.25;4.13;;;16.70;99.90;;;;;;4918893;29;20097;-67
2021/04/28 11:16:02;;;;;;;7.07;4.35;;;16.70;99.90;;;;;;4918311;29;20622;-66
2021/04/28 11:18:38;;;;;;;6.70;4.43;;;16.70;99.90;;;;;;4931327;29;20079;-67
2021/04/28 11:21:18;;;;;;;5.97;4.10;;;16.60;99.90;;;;;;4932735;29;20555;-67
2021/04/28 11:24:09;;;;;;;4.80;3.78;;;16.70;99.90;;;;;;4935507;29;20428;-67
2021/04/28 11:26:46;;;;;;;7.53;4.25;;;16.70;99.90;;;;;;4918670;29;20067;-67
2021/04/28 11:29:14;;;;;;;7.93;4.35;;;16.60;99.90;;;;;;4935167;29;20031;-67
2021/04/28 11:31:42;;;;;;;5.05;4.13;;;16.60;99.90;;;;;;4935148;29;20051;-66
2021/04/28 11:34:39;;;;;;;8.32;4.80;;;16.70;99.90;;;;;;4918572;29;20393;-67
2021/04/28 11:37:10;;;;;;;7.43;3.83;;;16.70;99.90;;;;;;4929581;29;20036;-67
2021/04/28 11:39:44;;;;;;;8.48;4.20;;;16.60;99.90;;;;;;4935589;29;20023;-66
2021/04/28 11:42:16;;;;;;;12.50;4.25;;;16.70;99.90;;;;;;4918495;29;20138;-67
2021/04/28 11:44:54;;;;;;;7.05;4.53;;;16.70;99.90;;;;;;4918453;29;20044;-67
2021/04/28 11:47:24;;;;;;;8.02;3.95;;;16.70;99.90;;;;;;4918160;29;20048;-67
2021/04/28 11:49:59;;;;;;;6.80;3.70;;;16.70;99.90;;;;;;4935520;29;20044;-66
2021/04/28 11:52:35;;;;;;;10.23;4.32;;;16.80;99.90;;;;;;4918365;29;20051;-67
2021/04/28 11:55:02;;;;;;;8.23;3.67;;;16.80;99.90;;;;;;4936451;29;20365;-67
2021/04/28 11:57:34;;;;;;;7.72;3.63;;;16.80;99.90;;;;;;4935250;29;20046;-67
2021/04/28 12:00:06;;;;;;;6.25;3.47;;;16.80;99.90;;;;;;4917641;29;20040;-67
2021/04/28 12:02:34;;;;;;;6.22;3.40;;;16.80;99.90;;;;;;4927244;29;20036;-66
2021/04/28 12:05:01;;;;;;;10.30;3.88;;;16.80;99.90;;;;;;4934679;29;20059;-67
2021/04/28 12:07:29;;;;;;;6.82;3.90;;;16.80;99.90;;;;;;4934543;29;20083;-67
2021/04/28 12:09:57;;;;;;;5.15;3.45;;;16.80;99.90;;;;;;4934200;29;20397;-67
2021/04/28 12:12:30;;;;;;;6.35;3.70;;;16.70;99.90;;;;;;4934210;29;20306;-67
2021/04/28 12:15:07;;;;;;;5.00;3.33;;;16.70;99.90;;;;;;4933583;29;20036;-67
2021/04/28 12:17:48;;;;;;;7.75;4.65;;;16.60;99.90;;;;;;4934669;29;20110;-67
2021/04/28 12:20:23;;;;;;;7.95;3.85;;;16.70;99.90;;;;;;4930108;29;20040;-67
2021/04/28 12:22:51;;;;;;;7.60;4.40;;;16.60;99.90;;;;;;4934025;29;20094;-67
2021/04/28 12:25:20;;;;;;;6.10;3.78;;;16.60;99.90;;;;;;4932364;29;20493;-67
2021/04/28 12:27:49;;;;;;;11.70;5.00;;;16.60;99.90;;;;;;4917846;29;20047;-67
2021/04/28 12:30:17;;;;;;;8.35;4.38;;;16.60;99.90;;;;;;4924986;29;20496;-67
2021/04/28 12:32:47;;;;;;;5.57;4.28;;;16.60;99.90;;;;;;4917806;29;20103;-67
2021/04/28 12:35:32;;;;;;;7.80;4.53;;;16.60;99.90;;;;;;4934692;29;20453;-67
2021/04/28 12:38:12;;;;;;;8.73;3.85;;;16.70;99.90;;;;;;4935099;29;20036;-67
2021/04/28 12:40:52;;;;;;;7.95;3.88;;;16.70;99.90;;;;;;4934802;29;20178;-67
2021/04/28 12:43:23;;;;;;;6.78;4.70;;;16.60;99.90;;;;;;4934428;29;20221;-67
2021/04/28 12:45:51;;;;;;;8.73;4.90;;;16.40;99.90;;;;;;4934349;29;20046;-67
2021/04/28 12:48:20;;;;;;;8.90;5.15;;;16.30;99.90;;;;;;4917082;29;20040;-67
2021/04/28 12:50:50;;;;;;;9.50;5.22;;;16.30;99.90;;;;;;4934878;29;20031;-66
2021/04/28 12:53:18;;;;;;;6.82;5.18;;;16.30;99.90;;;;;;4934092;29;20031;-66
2021/04/28 12:55:48;;;;;;;9.80;4.47;;;16.30;99.90;;;;;;4934727;29;20616;-67
2021/04/28 12:58:17;;;;;;;11.02;5.65;;;16.30;99.90;;;;;;4931519;29;20040;-67
2021/04/28 13:00:53;;;;;;;7.68;4.95;;;16.30;99.90;;;;;;4931245;29;20040;-66